Whiteville, NC

6:23 PM EDT on August 28, 2016 (GMT -0400)
CCSkywatch | | Change Station

Elev 91 ft 34.41 °N, 78.75 °W | Updated 15 seconds ago

Scattered Clouds
Scattered Clouds
82.4 °F
Feels Like 89 °F
N
1.0
Wind Variable Wind from ENE
Gusts 6.0 mph

Today
High -- | Low -- °F
--% Chance of Precip.
Yesterday
High -- | Low -- °F
Precip. -- in
Pressure 30.07 in
Visibility 10.0 miles
Clouds Scattered Clouds 3700 ft
Scattered Clouds 4400 ft
Heat Index 89 °F
Dew Point 74 °F
Humidity 77%
Rainfall 0.00 in
Snow Depth Not available.
6:45 AM 7:45 PM
Waning Crescent, 13% visible
METAR KCPC 282200Z AUTO 05005KT 10SM SCT037 SCT044 29/22 A3007 RMK AO2 T02890223
Pressure 30.07 in
Visibility 10.0 miles
Clouds Scattered Clouds 3700 ft
Scattered Clouds 4400 ft
Heat Index 89 °F
Dew Point 74 °F
Humidity 77%
Rainfall 0.00 in
Snow Depth Not available.
6:45 AM 7:45 PM
Waning Crescent, 13% visible
METAR KCPC 282200Z AUTO 05005KT 10SM SCT037 SCT044 29/22 A3007 RMK AO2 T02890223

10-Day Weather Forecast

Almanac

Astronomy

Aug. 28, 2016 Rise Set
Actual Time
Civil Twilight
Nautical Twilight
Astronomical Twilight
Moon
Length of Visible Light
Length of Day
Tomorrow will be .
, % of the Moon is Illuminated

Today's Extremes

State Highs State Lows

Community

WunderPhotos

Upload Photos

1,935,705 photos uploaded!

WunderBlog® & News

Nearby

Air Quality

  Air Quality AQ Index Pollutant
Not available.

Snow Depth

Station Depth Elevation

Earthquake Activity

City Distance Mag. Time & Date
Minimum magnitude displayed is 2.5.

Coastal Water Temperatures

Place Temperature

Stations

Nearby Weather Stations

Station Location Temp. Windchill Dew Point Humidity Wind Precip. Elev Updated Type
                   

Watches & Warnings

There are currently no watches in effect.